sensor_id;sensor_type;location;lat;lon;timestamp;P1;durP1;ratioP1;P2;durP2;ratioP2
6997;SDS011;3539;47.982;12.238;2022-07-18T00:01:58;3.60;;;3.27;;
6997;SDS011;3539;47.982;12.238;2022-07-18T00:04:27;3.67;;;3.37;;
6997;SDS011;3539;47.982;12.238;2022-07-18T00:06:54;3.70;;;3.40;;
6997;SDS011;3539;47.982;12.238;2022-07-18T00:09:22;3.23;;;2.93;;
6997;SDS011;3539;47.982;12.238;2022-07-18T00:11:50;3.57;;;3.27;;
6997;SDS011;3539;47.982;12.238;2022-07-18T00:14:17;3.70;;;3.40;;
6997;SDS011;3539;47.982;12.238;2022-07-18T00:16:44;3.73;;;3.43;;
6997;SDS011;3539;47.982;12.238;2022-07-18T00:19:10;4.77;;;3.60;;
6997;SDS011;3539;47.982;12.238;2022-07-18T00:21:37;3.63;;;3.33;;
6997;SDS011;3539;47.982;12.238;2022-07-18T00:24:04;3.70;;;3.40;;
6997;SDS011;3539;47.982;12.238;2022-07-18T00:26:33;4.10;;;3.70;;
6997;SDS011;3539;47.982;12.238;2022-07-18T00:29:00;3.60;;;3.30;;
6997;SDS011;3539;47.982;12.238;2022-07-18T00:31:27;4.60;;;3.83;;
6997;SDS011;3539;47.982;12.238;2022-07-18T00:33:54;3.67;;;3.37;;
6997;SDS011;3539;47.982;12.238;2022-07-18T00:36:20;3.43;;;3.10;;
6997;SDS011;3539;47.982;12.238;2022-07-18T00:38:47;3.37;;;3.07;;
6997;SDS011;3539;47.982;12.238;2022-07-18T00:41:14;3.33;;;3.03;;
6997;SDS011;3539;47.982;12.238;2022-07-18T00:43:42;3.63;;;3.30;;
6997;SDS011;3539;47.982;12.238;2022-07-18T00:46:09;3.70;;;3.40;;
6997;SDS011;3539;47.982;12.238;2022-07-18T00:48:37;3.77;;;3.20;;
6997;SDS011;3539;47.982;12.238;2022-07-18T00:51:04;3.80;;;3.50;;
6997;SDS011;3539;47.982;12.238;2022-07-18T00:53:33;3.80;;;3.50;;
6997;SDS011;3539;47.982;12.238;2022-07-18T00:56:00;3.53;;;3.23;;
6997;SDS011;3539;47.982;12.238;2022-07-18T00:58:28;4.30;;;3.53;;
6997;SDS011;3539;47.982;12.238;2022-07-18T01:00:56;4.23;;;3.60;;
6997;SDS011;3539;47.982;12.238;2022-07-18T01:03:41;3.73;;;3.43;;
6997;SDS011;3539;47.982;12.238;2022-07-18T01:06:07;4.37;;;3.53;;
6997;SDS011;3539;47.982;12.238;2022-07-18T01:08:34;3.57;;;3.37;;
6997;SDS011;3539;47.982;12.238;2022-07-18T01:11:02;4.37;;;3.77;;
6997;SDS011;3539;47.982;12.238;2022-07-18T01:13:29;4.10;;;3.70;;
6997;SDS011;3539;47.982;12.238;2022-07-18T01:15:57;4.00;;;3.70;;
6997;SDS011;3539;47.982;12.238;2022-07-18T01:18:24;3.60;;;3.30;;
6997;SDS011;3539;47.982;12.238;2022-07-18T01:21:00;3.90;;;3.50;;
6997;SDS011;3539;47.982;12.238;2022-07-18T01:23:33;5.63;;;3.90;;
6997;SDS011;3539;47.982;12.238;2022-07-18T01:25:59;3.73;;;3.43;;
6997;SDS011;3539;47.982;12.238;2022-07-18T01:28:26;3.80;;;3.50;;
6997;SDS011;3539;47.982;12.238;2022-07-18T01:30:53;3.90;;;3.60;;
6997;SDS011;3539;47.982;12.238;2022-07-18T01:33:20;8.70;;;3.93;;
6997;SDS011;3539;47.982;12.238;2022-07-18T01:35:46;4.17;;;3.87;;
6997;SDS011;3539;47.982;12.238;2022-07-18T01:38:14;3.70;;;3.40;;
6997;SDS011;3539;47.982;12.238;2022-07-18T01:40:43;4.20;;;3.63;;
6997;SDS011;3539;47.982;12.238;2022-07-18T01:43:09;3.87;;;3.57;;
6997;SDS011;3539;47.982;12.238;2022-07-18T01:45:36;3.43;;;3.17;;
6997;SDS011;3539;47.982;12.238;2022-07-18T01:48:04;3.83;;;3.50;;
6997;SDS011;3539;47.982;12.238;2022-07-18T01:50:31;3.87;;;3.50;;
6997;SDS011;3539;47.982;12.238;2022-07-18T01:52:58;3.60;;;3.30;;
6997;SDS011;3539;47.982;12.238;2022-07-18T01:55:26;3.63;;;3.40;;
6997;SDS011;3539;47.982;12.238;2022-07-18T01:57:53;3.93;;;3.63;;
6997;SDS011;3539;47.982;12.238;2022-07-18T02:00:19;6.00;;;3.97;;
6997;SDS011;3539;47.982;12.238;2022-07-18T02:02:46;4.43;;;4.00;;
6997;SDS011;3539;47.982;12.238;2022-07-18T02:05:13;4.70;;;4.20;;
6997;SDS011;3539;47.982;12.238;2022-07-18T02:07:40;4.70;;;3.90;;
6997;SDS011;3539;47.982;12.238;2022-07-18T02:10:09;4.40;;;3.77;;
6997;SDS011;3539;47.982;12.238;2022-07-18T02:12:38;4.17;;;3.80;;
6997;SDS011;3539;47.982;12.238;2022-07-18T02:15:06;5.10;;;3.50;;
6997;SDS011;3539;47.982;12.238;2022-07-18T02:17:35;3.90;;;3.60;;
6997;SDS011;3539;47.982;12.238;2022-07-18T02:20:02;5.30;;;3.80;;
6997;SDS011;3539;47.982;12.238;2022-07-18T02:22:30;6.17;;;3.83;;
6997;SDS011;3539;47.982;12.238;2022-07-18T02:24:56;5.50;;;3.80;;
6997;SDS011;3539;47.982;12.238;2022-07-18T02:27:23;4.50;;;4.10;;
6997;SDS011;3539;47.982;12.238;2022-07-18T02:29:51;4.27;;;3.80;;
6997;SDS011;3539;47.982;12.238;2022-07-18T02:32:18;4.20;;;3.90;;
6997;SDS011;3539;47.982;12.238;2022-07-18T02:34:45;4.50;;;3.97;;
6997;SDS011;3539;47.982;12.238;2022-07-18T02:37:12;5.20;;;4.37;;
6997;SDS011;3539;47.982;12.238;2022-07-18T02:39:39;4.50;;;4.10;;
6997;SDS011;3539;47.982;12.238;2022-07-18T02:42:06;4.53;;;4.03;;
6997;SDS011;3539;47.982;12.238;2022-07-18T02:44:33;4.27;;;3.97;;
6997;SDS011;3539;47.982;12.238;2022-07-18T02:47:01;4.60;;;4.20;;
6997;SDS011;3539;47.982;12.238;2022-07-18T02:49:28;4.40;;;3.87;;
6997;SDS011;3539;47.982;12.238;2022-07-18T02:51:57;4.40;;;3.93;;
6997;SDS011;3539;47.982;12.238;2022-07-18T02:54:26;3.97;;;3.67;;
6997;SDS011;3539;47.982;12.238;2022-07-18T02:56:53;4.20;;;3.80;;
6997;SDS011;3539;47.982;12.238;2022-07-18T02:59:20;4.20;;;3.80;;
6997;SDS011;3539;47.982;12.238;2022-07-18T03:01:47;4.73;;;4.03;;
6997;SDS011;3539;47.982;12.238;2022-07-18T03:04:16;4.80;;;3.80;;
6997;SDS011;3539;47.982;12.238;2022-07-18T03:06:44;6.10;;;4.00;;
6997;SDS011;3539;47.982;12.238;2022-07-18T03:09:12;4.07;;;3.77;;
6997;SDS011;3539;47.982;12.238;2022-07-18T03:11:39;4.23;;;3.87;;
6997;SDS011;3539;47.982;12.238;2022-07-18T03:14:06;4.10;;;3.70;;
6997;SDS011;3539;47.982;12.238;2022-07-18T03:16:32;5.10;;;3.70;;
6997;SDS011;3539;47.982;12.238;2022-07-18T03:18:59;4.23;;;3.93;;
6997;SDS011;3539;47.982;12.238;2022-07-18T03:21:27;3.93;;;3.60;;
6997;SDS011;3539;47.982;12.238;2022-07-18T03:23:54;5.57;;;3.40;;
6997;SDS011;3539;47.982;12.238;2022-07-18T03:26:21;3.80;;;3.50;;
6997;SDS011;3539;47.982;12.238;2022-07-18T03:28:48;4.07;;;3.77;;
6997;SDS011;3539;47.982;12.238;2022-07-18T03:31:14;4.63;;;4.00;;
6997;SDS011;3539;47.982;12.238;2022-07-18T03:33:41;4.30;;;3.90;;
6997;SDS011;3539;47.982;12.238;2022-07-18T03:36:08;5.00;;;3.87;;
6997;SDS011;3539;47.982;12.238;2022-07-18T03:38:36;3.90;;;3.50;;
6997;SDS011;3539;47.982;12.238;2022-07-18T03:41:08;4.00;;;3.60;;
6997;SDS011;3539;47.982;12.238;2022-07-18T03:43:35;4.33;;;3.80;;
6997;SDS011;3539;47.982;12.238;2022-07-18T03:46:01;4.43;;;4.03;;
6997;SDS011;3539;47.982;12.238;2022-07-18T03:48:28;4.27;;;3.87;;
6997;SDS011;3539;47.982;12.238;2022-07-18T03:50:55;3.93;;;3.60;;
6997;SDS011;3539;47.982;12.238;2022-07-18T03:53:22;4.20;;;3.80;;
6997;SDS011;3539;47.982;12.238;2022-07-18T03:55:50;4.47;;;3.63;;
6997;SDS011;3539;47.982;12.238;2022-07-18T03:58:17;4.37;;;3.57;;
6997;SDS011;3539;47.982;12.238;2022-07-18T04:00:46;3.90;;;3.50;;
6997;SDS011;3539;47.982;12.238;2022-07-18T04:03:13;4.20;;;3.60;;
6997;SDS011;3539;47.982;12.238;2022-07-18T04:05:40;4.00;;;3.70;;
6997;SDS011;3539;47.982;12.238;2022-07-18T04:08:07;3.83;;;3.50;;
6997;SDS011;3539;47.982;12.238;2022-07-18T04:10:34;4.93;;;3.93;;
6997;SDS011;3539;47.982;12.238;2022-07-18T04:13:02;6.17;;;4.03;;
6997;SDS011;3539;47.982;12.238;2022-07-18T04:15:29;5.30;;;3.93;;
6997;SDS011;3539;47.982;12.238;2022-07-18T04:17:56;7.63;;;3.90;;
6997;SDS011;3539;47.982;12.238;2022-07-18T04:20:23;8.50;;;4.07;;
6997;SDS011;3539;47.982;12.238;2022-07-18T04:22:50;5.23;;;3.63;;
6997;SDS011;3539;47.982;12.238;2022-07-18T04:25:18;3.97;;;3.53;;
6997;SDS011;3539;47.982;12.238;2022-07-18T04:27:46;4.77;;;4.20;;
6997;SDS011;3539;47.982;12.238;2022-07-18T04:30:15;4.03;;;3.63;;
6997;SDS011;3539;47.982;12.238;2022-07-18T04:32:43;4.10;;;3.70;;
6997;SDS011;3539;47.982;12.238;2022-07-18T04:35:10;3.63;;;3.33;;
6997;SDS011;3539;47.982;12.238;2022-07-18T04:37:37;4.13;;;3.73;;
6997;SDS011;3539;47.982;12.238;2022-07-18T04:40:05;4.40;;;4.00;;
6997;SDS011;3539;47.982;12.238;2022-07-18T04:42:32;4.30;;;3.90;;
6997;SDS011;3539;47.982;12.238;2022-07-18T04:44:59;4.57;;;4.07;;
6997;SDS011;3539;47.982;12.238;2022-07-18T04:47:28;3.93;;;3.63;;
6997;SDS011;3539;47.982;12.238;2022-07-18T04:49:55;4.30;;;3.70;;
6997;SDS011;3539;47.982;12.238;2022-07-18T04:52:22;6.73;;;4.07;;
6997;SDS011;3539;47.982;12.238;2022-07-18T04:54:51;4.83;;;4.43;;
6997;SDS011;3539;47.982;12.238;2022-07-18T04:57:19;4.80;;;4.40;;
6997;SDS011;3539;47.982;12.238;2022-07-18T04:59:45;5.07;;;4.10;;
6997;SDS011;3539;47.982;12.238;2022-07-18T05:02:13;6.50;;;4.50;;
6997;SDS011;3539;47.982;12.238;2022-07-18T05:04:41;5.67;;;4.80;;
6997;SDS011;3539;47.982;12.238;2022-07-18T05:07:07;4.73;;;4.30;;
6997;SDS011;3539;47.982;12.238;2022-07-18T05:09:34;5.03;;;4.50;;
6997;SDS011;3539;47.982;12.238;2022-07-18T05:12:01;6.33;;;4.77;;
6997;SDS011;3539;47.982;12.238;2022-07-18T05:14:28;7.07;;;5.10;;
6997;SDS011;3539;47.982;12.238;2022-07-18T05:16:55;7.43;;;4.93;;
6997;SDS011;3539;47.982;12.238;2022-07-18T05:19:22;5.30;;;4.83;;
6997;SDS011;3539;47.982;12.238;2022-07-18T05:21:50;5.80;;;5.10;;
6997;SDS011;3539;47.982;12.238;2022-07-18T05:24:16;5.03;;;4.63;;
6997;SDS011;3539;47.982;12.238;2022-07-18T05:26:44;5.83;;;4.87;;
6997;SDS011;3539;47.982;12.238;2022-07-18T05:29:11;6.43;;;5.27;;
6997;SDS011;3539;47.982;12.238;2022-07-18T05:31:39;6.10;;;5.57;;
6997;SDS011;3539;47.982;12.238;2022-07-18T05:34:06;8.07;;;6.03;;
6997;SDS011;3539;47.982;12.238;2022-07-18T05:36:33;6.53;;;5.53;;
6997;SDS011;3539;47.982;12.238;2022-07-18T05:39:02;8.30;;;5.67;;
6997;SDS011;3539;47.982;12.238;2022-07-18T05:41:29;6.00;;;5.40;;
6997;SDS011;3539;47.982;12.238;2022-07-18T05:43:56;6.53;;;5.93;;
6997;SDS011;3539;47.982;12.238;2022-07-18T05:46:23;6.40;;;5.90;;
6997;SDS011;3539;47.982;12.238;2022-07-18T05:48:49;6.77;;;5.93;;
6997;SDS011;3539;47.982;12.238;2022-07-18T05:51:17;5.93;;;5.43;;
6997;SDS011;3539;47.982;12.238;2022-07-18T05:53:44;6.67;;;6.17;;
6997;SDS011;3539;47.982;12.238;2022-07-18T05:56:12;7.67;;;6.03;;
6997;SDS011;3539;47.982;12.238;2022-07-18T05:58:38;5.87;;;5.40;;
6997;SDS011;3539;47.982;12.238;2022-07-18T06:01:05;6.40;;;5.20;;
6997;SDS011;3539;47.982;12.238;2022-07-18T06:03:33;6.27;;;5.70;;
6997;SDS011;3539;47.982;12.238;2022-07-18T06:06:01;6.00;;;5.50;;
6997;SDS011;3539;47.982;12.238;2022-07-18T06:08:27;6.33;;;5.67;;
6997;SDS011;3539;47.982;12.238;2022-07-18T06:10:54;6.17;;;5.53;;
6997;SDS011;3539;47.982;12.238;2022-07-18T06:13:22;5.57;;;5.13;;
6997;SDS011;3539;47.982;12.238;2022-07-18T06:15:49;6.23;;;5.57;;
6997;SDS011;3539;47.982;12.238;2022-07-18T06:18:16;6.27;;;5.20;;
6997;SDS011;3539;47.982;12.238;2022-07-18T06:20:43;8.57;;;5.40;;
6997;SDS011;3539;47.982;12.238;2022-07-18T06:23:10;5.80;;;4.93;;
6997;SDS011;3539;47.982;12.238;2022-07-18T06:25:36;5.50;;;5.00;;
6997;SDS011;3539;47.982;12.238;2022-07-18T06:28:03;5.63;;;5.13;;
6997;SDS011;3539;47.982;12.238;2022-07-18T06:30:32;5.87;;;5.00;;
6997;SDS011;3539;47.982;12.238;2022-07-18T06:32:58;6.30;;;4.77;;
6997;SDS011;3539;47.982;12.238;2022-07-18T06:35:25;5.67;;;5.07;;
6997;SDS011;3539;47.982;12.238;2022-07-18T06:37:52;5.43;;;4.57;;
6997;SDS011;3539;47.982;12.238;2022-07-18T06:40:19;5.20;;;4.37;;
6997;SDS011;3539;47.982;12.238;2022-07-18T06:42:45;8.30;;;4.90;;
6997;SDS011;3539;47.982;12.238;2022-07-18T06:45:12;5.00;;;4.60;;
6997;SDS011;3539;47.982;12.238;2022-07-18T06:47:41;4.70;;;4.30;;
6997;SDS011;3539;47.982;12.238;2022-07-18T06:50:13;6.70;;;4.60;;
6997;SDS011;3539;47.982;12.238;2022-07-18T06:52:43;5.67;;;4.30;;
6997;SDS011;3539;47.982;12.238;2022-07-18T06:55:11;5.03;;;4.33;;
6997;SDS011;3539;47.982;12.238;2022-07-18T06:57:39;7.57;;;4.77;;
6997;SDS011;3539;47.982;12.238;2022-07-18T07:00:07;4.70;;;4.30;;
6997;SDS011;3539;47.982;12.238;2022-07-18T07:02:39;5.57;;;5.07;;
6997;SDS011;3539;47.982;12.238;2022-07-18T07:05:08;5.23;;;4.83;;
6997;SDS011;3539;47.982;12.238;2022-07-18T07:07:35;5.37;;;4.87;;
6997;SDS011;3539;47.982;12.238;2022-07-18T07:10:02;5.30;;;4.90;;
6997;SDS011;3539;47.982;12.238;2022-07-18T07:12:29;5.83;;;5.27;;
6997;SDS011;3539;47.982;12.238;2022-07-18T07:14:57;6.50;;;5.33;;
6997;SDS011;3539;47.982;12.238;2022-07-18T07:17:26;6.10;;;5.60;;
6997;SDS011;3539;47.982;12.238;2022-07-18T07:19:56;6.37;;;5.83;;
6997;SDS011;3539;47.982;12.238;2022-07-18T07:22:23;6.40;;;6.00;;
6997;SDS011;3539;47.982;12.238;2022-07-18T07:24:50;7.07;;;6.57;;
6997;SDS011;3539;47.982;12.238;2022-07-18T07:27:16;7.67;;;6.57;;
6997;SDS011;3539;47.982;12.238;2022-07-18T07:29:43;7.57;;;7.17;;
6997;SDS011;3539;47.982;12.238;2022-07-18T07:32:10;7.73;;;7.13;;
6997;SDS011;3539;47.982;12.238;2022-07-18T07:34:37;8.00;;;7.47;;
6997;SDS011;3539;47.982;12.238;2022-07-18T07:37:05;7.90;;;7.40;;
6997;SDS011;3539;47.982;12.238;2022-07-18T07:39:32;8.70;;;7.90;;
6997;SDS011;3539;47.982;12.238;2022-07-18T07:41:58;8.60;;;7.93;;
6997;SDS011;3539;47.982;12.238;2022-07-18T07:44:25;8.43;;;7.83;;
6997;SDS011;3539;47.982;12.238;2022-07-18T07:46:52;8.20;;;7.70;;
6997;SDS011;3539;47.982;12.238;2022-07-18T07:49:19;9.57;;;8.93;;
6997;SDS011;3539;47.982;12.238;2022-07-18T07:51:45;9.30;;;8.67;;
6997;SDS011;3539;47.982;12.238;2022-07-18T07:54:15;9.50;;;8.80;;
6997;SDS011;3539;47.982;12.238;2022-07-18T07:56:42;9.63;;;9.03;;
6997;SDS011;3539;47.982;12.238;2022-07-18T07:59:09;8.83;;;8.30;;
6997;SDS011;3539;47.982;12.238;2022-07-18T08:01:38;9.73;;;9.13;;
6997;SDS011;3539;47.982;12.238;2022-07-18T08:04:04;4.77;;;4.30;;
6997;SDS011;3539;47.982;12.238;2022-07-18T08:06:31;6.73;;;6.20;;
6997;SDS011;3539;47.982;12.238;2022-07-18T08:08:58;6.03;;;5.50;;
6997;SDS011;3539;47.982;12.238;2022-07-18T08:11:26;6.17;;;5.43;;
6997;SDS011;3539;47.982;12.238;2022-07-18T08:13:53;6.23;;;4.97;;
6997;SDS011;3539;47.982;12.238;2022-07-18T08:16:20;6.40;;;5.83;;
6997;SDS011;3539;47.982;12.238;2022-07-18T08:18:47;8.53;;;8.00;;
6997;SDS011;3539;47.982;12.238;2022-07-18T08:21:14;5.37;;;4.87;;
6997;SDS011;3539;47.982;12.238;2022-07-18T08:23:41;6.07;;;5.63;;
6997;SDS011;3539;47.982;12.238;2022-07-18T08:26:10;6.23;;;5.83;;
6997;SDS011;3539;47.982;12.238;2022-07-18T08:28:38;8.63;;;8.00;;
6997;SDS011;3539;47.982;12.238;2022-07-18T08:31:05;5.43;;;4.83;;
6997;SDS011;3539;47.982;12.238;2022-07-18T08:33:34;5.80;;;5.37;;
6997;SDS011;3539;47.982;12.238;2022-07-18T08:36:01;5.77;;;5.43;;
6997;SDS011;3539;47.982;12.238;2022-07-18T08:38:28;5.30;;;4.90;;
6997;SDS011;3539;47.982;12.238;2022-07-18T08:40:54;5.23;;;4.83;;
6997;SDS011;3539;47.982;12.238;2022-07-18T08:43:23;5.37;;;4.87;;
6997;SDS011;3539;47.982;12.238;2022-07-18T08:45:53;5.30;;;4.80;;
6997;SDS011;3539;47.982;12.238;2022-07-18T08:48:21;4.40;;;4.00;;
6997;SDS011;3539;47.982;12.238;2022-07-18T08:50:48;4.23;;;3.93;;
6997;SDS011;3539;47.982;12.238;2022-07-18T08:53:16;5.30;;;4.73;;
6997;SDS011;3539;47.982;12.238;2022-07-18T08:55:43;5.97;;;4.63;;
6997;SDS011;3539;47.982;12.238;2022-07-18T08:58:10;5.43;;;4.93;;
6997;SDS011;3539;47.982;12.238;2022-07-18T09:00:39;5.00;;;4.60;;
6997;SDS011;3539;47.982;12.238;2022-07-18T09:03:07;5.17;;;4.73;;
6997;SDS011;3539;47.982;12.238;2022-07-18T09:05:34;5.40;;;5.00;;
6997;SDS011;3539;47.982;12.238;2022-07-18T09:08:15;6.10;;;5.17;;
6997;SDS011;3539;47.982;12.238;2022-07-18T09:10:47;7.47;;;4.67;;
6997;SDS011;3539;47.982;12.238;2022-07-18T09:13:15;5.67;;;5.27;;
6997;SDS011;3539;47.982;12.238;2022-07-18T09:15:55;5.63;;;5.07;;
6997;SDS011;3539;47.982;12.238;2022-07-18T09:18:27;5.20;;;4.80;;
6997;SDS011;3539;47.982;12.238;2022-07-18T09:20:58;5.27;;;4.60;;
6997;SDS011;3539;47.982;12.238;2022-07-18T09:23:27;4.50;;;4.10;;
6997;SDS011;3539;47.982;12.238;2022-07-18T09:25:54;4.77;;;4.37;;
6997;SDS011;3539;47.982;12.238;2022-07-18T09:28:21;4.80;;;4.50;;
6997;SDS011;3539;47.982;12.238;2022-07-18T09:30:48;4.75;;;4.45;;
6997;SDS011;3539;47.982;12.238;2022-07-18T09:33:15;4.28;;;3.88;;
6997;SDS011;3539;47.982;12.238;2022-07-18T09:35:43;4.50;;;4.13;;
6997;SDS011;3539;47.982;12.238;2022-07-18T09:38:12;4.72;;;4.43;;
6997;SDS011;3539;47.982;12.238;2022-07-18T09:40:40;5.03;;;4.47;;
6997;SDS011;3539;47.982;12.238;2022-07-18T09:43:09;5.15;;;4.75;;
6997;SDS011;3539;47.982;12.238;2022-07-18T09:45:37;4.72;;;4.40;;
6997;SDS011;3539;47.982;12.238;2022-07-18T09:48:07;4.97;;;4.57;;
6997;SDS011;3539;47.982;12.238;2022-07-18T09:50:35;4.80;;;4.45;;
6997;SDS011;3539;47.982;12.238;2022-07-18T09:53:06;4.78;;;4.38;;
6997;SDS011;3539;47.982;12.238;2022-07-18T09:55:41;5.03;;;4.53;;
6997;SDS011;3539;47.982;12.238;2022-07-18T09:58:09;5.05;;;4.53;;
6997;SDS011;3539;47.982;12.238;2022-07-18T10:00:37;4.97;;;4.68;;
6997;SDS011;3539;47.982;12.238;2022-07-18T10:03:06;5.05;;;4.68;;
6997;SDS011;3539;47.982;12.238;2022-07-18T10:05:34;5.25;;;4.95;;
6997;SDS011;3539;47.982;12.238;2022-07-18T10:08:02;5.47;;;5.10;;
6997;SDS011;3539;47.982;12.238;2022-07-18T10:10:31;5.70;;;5.30;;
6997;SDS011;3539;47.982;12.238;2022-07-18T10:13:01;6.07;;;5.68;;
6997;SDS011;3539;47.982;12.238;2022-07-18T10:15:30;6.78;;;6.38;;
6997;SDS011;3539;47.982;12.238;2022-07-18T10:17:59;5.55;;;5.20;;
6997;SDS011;3539;47.982;12.238;2022-07-18T10:20:31;6.88;;;6.47;;
6997;SDS011;3539;47.982;12.238;2022-07-18T10:23:02;7.22;;;6.82;;
6997;SDS011;3539;47.982;12.238;2022-07-18T10:25:44;7.68;;;7.28;;
6997;SDS011;3539;47.982;12.238;2022-07-18T10:28:12;8.52;;;8.02;;
6997;SDS011;3539;47.982;12.238;2022-07-18T10:30:44;8.50;;;8.00;;
6997;SDS011;3539;47.982;12.238;2022-07-18T10:36:06;8.60;;;8.10;;
6997;SDS011;3539;47.982;12.238;2022-07-18T10:38:34;7.90;;;7.50;;
6997;SDS011;3539;47.982;12.238;2022-07-18T10:41:04;8.52;;;8.05;;
6997;SDS011;3539;47.982;12.238;2022-07-18T10:43:34;8.60;;;8.10;;
6997;SDS011;3539;47.982;12.238;2022-07-18T10:46:05;8.13;;;7.72;;
6997;SDS011;3539;47.982;12.238;2022-07-18T10:48:50;7.72;;;7.32;;
6997;SDS011;3539;47.982;12.238;2022-07-18T10:51:18;7.93;;;7.32;;
6997;SDS011;3539;47.982;12.238;2022-07-18T10:53:54;8.80;;;8.20;;
6997;SDS011;3539;47.982;12.238;2022-07-18T10:57:03;8.73;;;8.23;;
6997;SDS011;3539;47.982;12.238;2022-07-18T10:59:32;8.40;;;8.00;;
6997;SDS011;3539;47.982;12.238;2022-07-18T11:01:59;12.63;;;11.93;;
6997;SDS011;3539;47.982;12.238;2022-07-18T11:04:28;11.35;;;10.70;;
6997;SDS011;3539;47.982;12.238;2022-07-18T11:07:02;10.07;;;9.57;;
6997;SDS011;3539;47.982;12.238;2022-07-18T11:09:35;10.13;;;9.57;;
6997;SDS011;3539;47.982;12.238;2022-07-18T11:15:02;11.25;;;10.40;;
6997;SDS011;3539;47.982;12.238;2022-07-18T11:20:35;11.90;;;11.05;;
6997;SDS011;3539;47.982;12.238;2022-07-18T11:23:04;9.65;;;9.23;;
6997;SDS011;3539;47.982;12.238;2022-07-18T11:25:37;11.35;;;10.82;;
6997;SDS011;3539;47.982;12.238;2022-07-18T11:28:08;10.63;;;10.02;;
6997;SDS011;3539;47.982;12.238;2022-07-18T11:30:35;11.32;;;10.63;;
6997;SDS011;3539;47.982;12.238;2022-07-18T11:33:03;12.32;;;11.73;;
6997;SDS011;3539;47.982;12.238;2022-07-18T11:35:30;15.90;;;15.13;;
6997;SDS011;3539;47.982;12.238;2022-07-18T11:37:58;12.90;;;12.30;;
6997;SDS011;3539;47.982;12.238;2022-07-18T11:40:30;13.35;;;12.75;;
6997;SDS011;3539;47.982;12.238;2022-07-18T11:42:57;11.90;;;11.30;;
6997;SDS011;3539;47.982;12.238;2022-07-18T11:45:25;13.77;;;13.07;;
6997;SDS011;3539;47.982;12.238;2022-07-18T11:47:52;12.35;;;11.75;;
6997;SDS011;3539;47.982;12.238;2022-07-18T11:50:26;12.55;;;11.95;;
6997;SDS011;3539;47.982;12.238;2022-07-18T11:52:56;10.80;;;10.30;;
6997;SDS011;3539;47.982;12.238;2022-07-18T11:55:31;11.35;;;10.75;;
6997;SDS011;3539;47.982;12.238;2022-07-18T11:58:05;11.63;;;11.02;;
6997;SDS011;3539;47.982;12.238;2022-07-18T12:00:33;12.23;;;11.63;;
6997;SDS011;3539;47.982;12.238;2022-07-18T12:03:07;12.85;;;12.05;;
6997;SDS011;3539;47.982;12.238;2022-07-18T12:05:35;10.07;;;9.60;;
6997;SDS011;3539;47.982;12.238;2022-07-18T12:13:52;13.15;;;12.45;;
6997;SDS011;3539;47.982;12.238;2022-07-18T12:16:23;10.65;;;10.02;;
6997;SDS011;3539;47.982;12.238;2022-07-18T12:18:58;9.15;;;8.75;;
6997;SDS011;3539;47.982;12.238;2022-07-18T12:24:20;8.57;;;8.13;;
6997;SDS011;3539;47.982;12.238;2022-07-18T12:26:56;10.48;;;9.98;;
6997;SDS011;3539;47.982;12.238;2022-07-18T12:32:25;10.48;;;9.88;;
6997;SDS011;3539;47.982;12.238;2022-07-18T12:34:53;10.70;;;10.13;;
6997;SDS011;3539;47.982;12.238;2022-07-18T12:37:22;11.68;;;11.07;;
6997;SDS011;3539;47.982;12.238;2022-07-18T12:39:55;10.35;;;9.75;;
6997;SDS011;3539;47.982;12.238;2022-07-18T12:42:26;10.88;;;10.38;;
6997;SDS011;3539;47.982;12.238;2022-07-18T12:44:54;11.27;;;10.57;;
6997;SDS011;3539;47.982;12.238;2022-07-18T12:47:20;11.40;;;10.90;;
6997;SDS011;3539;47.982;12.238;2022-07-18T12:49:49;9.63;;;9.23;;
6997;SDS011;3539;47.982;12.238;2022-07-18T12:52:16;12.20;;;11.60;;
6997;SDS011;3539;47.982;12.238;2022-07-18T12:54:43;12.18;;;11.45;;
6997;SDS011;3539;47.982;12.238;2022-07-18T12:57:10;10.68;;;10.18;;
6997;SDS011;3539;47.982;12.238;2022-07-18T12:59:37;10.45;;;9.68;;
6997;SDS011;3539;47.982;12.238;2022-07-18T13:02:04;10.65;;;10.15;;
6997;SDS011;3539;47.982;12.238;2022-07-18T13:04:31;11.55;;;11.05;;
6997;SDS011;3539;47.982;12.238;2022-07-18T13:06:59;11.45;;;10.85;;
6997;SDS011;3539;47.982;12.238;2022-07-18T13:09:26;11.23;;;10.73;;
6997;SDS011;3539;47.982;12.238;2022-07-18T13:11:53;10.95;;;10.45;;
6997;SDS011;3539;47.982;12.238;2022-07-18T13:14:19;12.05;;;11.32;;
6997;SDS011;3539;47.982;12.238;2022-07-18T13:16:48;11.55;;;10.95;;
6997;SDS011;3539;47.982;12.238;2022-07-18T13:19:15;11.52;;;11.02;;
6997;SDS011;3539;47.982;12.238;2022-07-18T13:21:43;12.07;;;11.43;;
6997;SDS011;3539;47.982;12.238;2022-07-18T13:24:13;10.77;;;10.27;;
6997;SDS011;3539;47.982;12.238;2022-07-18T13:26:40;10.30;;;9.80;;
6997;SDS011;3539;47.982;12.238;2022-07-18T13:29:07;10.77;;;10.18;;
6997;SDS011;3539;47.982;12.238;2022-07-18T13:31:34;12.25;;;11.65;;
6997;SDS011;3539;47.982;12.238;2022-07-18T13:34:01;12.38;;;11.88;;
6997;SDS011;3539;47.982;12.238;2022-07-18T13:36:28;10.35;;;9.88;;
6997;SDS011;3539;47.982;12.238;2022-07-18T13:38:57;10.32;;;9.70;;
6997;SDS011;3539;47.982;12.238;2022-07-18T13:41:26;13.10;;;12.50;;
6997;SDS011;3539;47.982;12.238;2022-07-18T13:43:54;11.40;;;10.90;;
6997;SDS011;3539;47.982;12.238;2022-07-18T13:46:21;10.38;;;9.88;;
6997;SDS011;3539;47.982;12.238;2022-07-18T13:48:48;11.18;;;10.57;;
6997;SDS011;3539;47.982;12.238;2022-07-18T13:51:15;10.55;;;9.95;;
6997;SDS011;3539;47.982;12.238;2022-07-18T13:53:42;11.57;;;10.88;;
6997;SDS011;3539;47.982;12.238;2022-07-18T13:56:08;10.95;;;10.35;;
6997;SDS011;3539;47.982;12.238;2022-07-18T13:58:37;11.55;;;10.95;;
6997;SDS011;3539;47.982;12.238;2022-07-18T14:01:04;12.10;;;11.38;;
6997;SDS011;3539;47.982;12.238;2022-07-18T14:03:31;11.20;;;10.60;;
6997;SDS011;3539;47.982;12.238;2022-07-18T14:05:57;10.50;;;10.00;;
6997;SDS011;3539;47.982;12.238;2022-07-18T14:08:24;10.30;;;9.80;;
6997;SDS011;3539;47.982;12.238;2022-07-18T14:10:51;10.95;;;10.35;;
6997;SDS011;3539;47.982;12.238;2022-07-18T14:13:18;11.07;;;10.57;;
6997;SDS011;3539;47.982;12.238;2022-07-18T14:15:46;10.85;;;10.35;;
6997;SDS011;3539;47.982;12.238;2022-07-18T14:18:13;11.13;;;10.63;;
6997;SDS011;3539;47.982;12.238;2022-07-18T14:20:42;9.98;;;9.48;;
6997;SDS011;3539;47.982;12.238;2022-07-18T14:23:14;11.15;;;10.55;;
6997;SDS011;3539;47.982;12.238;2022-07-18T14:25:41;10.55;;;9.95;;
6997;SDS011;3539;47.982;12.238;2022-07-18T14:28:09;10.10;;;9.50;;
6997;SDS011;3539;47.982;12.238;2022-07-18T14:30:36;11.35;;;10.85;;
6997;SDS011;3539;47.982;12.238;2022-07-18T14:35:54;16.55;;;15.82;;
6997;SDS011;3539;47.982;12.238;2022-07-18T14:38:21;11.95;;;11.45;;
6997;SDS011;3539;47.982;12.238;2022-07-18T14:40:48;11.10;;;10.50;;
6997;SDS011;3539;47.982;12.238;2022-07-18T14:43:14;10.25;;;9.68;;
6997;SDS011;3539;47.982;12.238;2022-07-18T14:45:42;12.07;;;11.48;;
6997;SDS011;3539;47.982;12.238;2022-07-18T14:48:09;9.38;;;8.88;;
6997;SDS011;3539;47.982;12.238;2022-07-18T14:50:36;11.98;;;11.48;;
6997;SDS011;3539;47.982;12.238;2022-07-18T14:53:04;11.05;;;10.55;;
6997;SDS011;3539;47.982;12.238;2022-07-18T14:55:33;10.70;;;10.00;;
6997;SDS011;3539;47.982;12.238;2022-07-18T14:58:00;10.93;;;10.43;;
6997;SDS011;3539;47.982;12.238;2022-07-18T15:00:28;10.50;;;10.00;;
6997;SDS011;3539;47.982;12.238;2022-07-18T15:02:54;11.13;;;10.52;;
6997;SDS011;3539;47.982;12.238;2022-07-18T15:05:21;10.70;;;10.10;;
6997;SDS011;3539;47.982;12.238;2022-07-18T15:07:48;11.02;;;10.52;;
6997;SDS011;3539;47.982;12.238;2022-07-18T15:10:16;10.57;;;9.98;;
6997;SDS011;3539;47.982;12.238;2022-07-18T15:12:43;10.50;;;10.05;;
6997;SDS011;3539;47.982;12.238;2022-07-18T15:15:10;10.90;;;10.40;;
6997;SDS011;3539;47.982;12.238;2022-07-18T15:17:37;11.18;;;10.60;;
6997;SDS011;3539;47.982;12.238;2022-07-18T15:20:04;11.73;;;11.07;;
6997;SDS011;3539;47.982;12.238;2022-07-18T15:22:32;10.48;;;9.98;;
6997;SDS011;3539;47.982;12.238;2022-07-18T15:24:59;11.13;;;10.63;;